createdAt,value
2024-03-07T00:00:17.974Z,41.50
2024-03-07T00:02:46.274Z,39.83
2024-03-07T00:05:16.986Z,39.25
2024-03-07T00:07:43.976Z,39.13
2024-03-07T00:10:11.307Z,37.85
2024-03-07T00:12:42.043Z,40.90
2024-03-07T00:15:10.088Z,46.67
2024-03-07T00:17:36.801Z,41.80
2024-03-07T00:20:10.654Z,40.03
2024-03-07T00:22:37.709Z,42.97
2024-03-07T00:25:06.537Z,43.80
2024-03-07T00:27:33.718Z,38.15
2024-03-07T00:30:00.693Z,40.70
2024-03-07T00:32:31.029Z,44.20
2024-03-07T00:35:00.645Z,39.65
2024-03-07T00:37:27.208Z,46.45
2024-03-07T00:39:53.701Z,41.85
2024-03-07T00:42:20.241Z,44.75
2024-03-07T00:44:47.727Z,43.42
2024-03-07T00:47:14.244Z,45.00
2024-03-07T00:49:41.185Z,40.75
2024-03-07T00:52:07.734Z,47.03
2024-03-07T00:54:34.251Z,45.70
2024-03-07T00:57:00.851Z,48.55
2024-03-07T00:59:27.374Z,47.83
2024-03-07T01:01:54.096Z,49.40
2024-03-07T01:04:20.647Z,48.15
2024-03-07T01:06:47.163Z,47.50
2024-03-07T01:09:17.842Z,47.25
2024-03-07T01:11:46.271Z,49.08
2024-03-07T01:14:14.489Z,41.97
2024-03-07T01:16:41.070Z,45.55
2024-03-07T01:19:08.478Z,45.97
2024-03-07T01:21:39.085Z,44.75
2024-03-07T01:24:06.834Z,44.05
2024-03-07T01:26:34.756Z,49.40
2024-03-07T01:29:01.638Z,49.05
2024-03-07T01:31:28.796Z,49.20
2024-03-07T01:33:55.774Z,44.67
2024-03-07T01:36:22.806Z,44.72
2024-03-07T01:38:49.667Z,42.75
2024-03-07T01:41:16.539Z,45.85
2024-03-07T01:43:43.579Z,46.55
2024-03-07T01:46:11.266Z,42.75
2024-03-07T01:48:38.881Z,46.47
2024-03-07T01:51:05.668Z,43.15
2024-03-07T01:53:33.028Z,46.20
2024-03-07T01:56:03.883Z,48.50
2024-03-07T01:58:31.329Z,45.80
2024-03-07T02:00:59.149Z,46.33
2024-03-07T02:03:25.845Z,43.97
2024-03-07T02:05:52.338Z,51.50
2024-03-07T02:08:20.709Z,50.13
2024-03-07T02:10:47.539Z,41.33
2024-03-07T02:13:14.114Z,46.30
2024-03-07T02:15:40.553Z,53.88
2024-03-07T02:18:07.411Z,47.97
2024-03-07T02:20:34.017Z,47.88
2024-03-07T02:23:00.512Z,46.60
2024-03-07T02:25:26.985Z,50.22
2024-03-07T02:27:53.488Z,57.80
2024-03-07T02:30:20.125Z,53.33
2024-03-07T02:33:08.585Z,53.83
2024-03-07T02:35:38.334Z,51.95
2024-03-07T02:38:06.243Z,54.78
2024-03-07T02:40:32.804Z,64.32
2024-03-07T02:42:59.602Z,61.10
2024-03-07T02:45:26.752Z,63.55
2024-03-07T02:47:54.831Z,60.47
2024-03-07T02:50:22.966Z,63.20
2024-03-07T02:52:50.695Z,56.70
2024-03-07T02:55:17.193Z,59.88
2024-03-07T02:57:43.689Z,62.20
2024-03-07T03:00:28.121Z,55.60
2024-03-07T03:02:55.210Z,60.72
2024-03-07T03:05:21.989Z,60.30
2024-03-07T03:07:55.156Z,70.57
2024-03-07T03:10:21.806Z,61.67
2024-03-07T03:12:48.417Z,61.00
2024-03-07T03:15:16.075Z,75.50
2024-03-07T03:17:42.970Z,67.70
2024-03-07T03:20:25.287Z,69.22
2024-03-07T03:23:07.297Z,56.70
2024-03-07T03:25:40.638Z,64.28
2024-03-07T03:28:07.580Z,71.55
2024-03-07T03:30:34.196Z,73.80
2024-03-07T03:33:01.504Z,63.20
2024-03-07T03:35:28.019Z,69.13
2024-03-07T03:37:54.515Z,81.32
2024-03-07T03:40:21.009Z,70.05
2024-03-07T03:42:47.523Z,79.72
2024-03-07T03:45:15.613Z,69.60
2024-03-07T03:47:43.650Z,77.28
2024-03-07T03:50:12.526Z,71.65
2024-03-07T03:52:39.697Z,73.13
2024-03-07T03:55:06.776Z,70.95
2024-03-07T03:57:34.350Z,67.72
2024-03-07T04:00:01.010Z,73.97
2024-03-07T04:02:27.557Z,72.38
2024-03-07T04:04:54.656Z,71.25
2024-03-07T04:07:21.920Z,68.43
2024-03-07T04:09:49.004Z,68.10
2024-03-07T04:12:16.503Z,73.53
2024-03-07T04:14:44.409Z,72.20
2024-03-07T04:17:14.822Z,65.57
2024-03-07T04:19:42.912Z,64.53
2024-03-07T04:22:09.930Z,74.25
2024-03-07T04:24:36.741Z,79.20
2024-03-07T04:27:07.388Z,71.43
2024-03-07T04:29:35.039Z,77.90
2024-03-07T04:32:02.569Z,80.60
2024-03-07T04:34:31.744Z,76.50
2024-03-07T04:36:59.868Z,79.78
2024-03-07T04:39:33.577Z,83.78
2024-03-07T04:42:04.164Z,81.93
2024-03-07T04:44:31.589Z,77.82
2024-03-07T04:47:00.011Z,83.40
2024-03-07T04:49:28.678Z,71.40
2024-03-07T04:51:57.621Z,84.43
2024-03-07T04:54:25.401Z,76.85
2024-03-07T04:56:53.291Z,74.95
2024-03-07T04:59:20.693Z,100.72
2024-03-07T05:01:48.310Z,82.35
2024-03-07T05:04:16.072Z,86.47
2024-03-07T05:06:42.765Z,91.20
2024-03-07T05:09:10.766Z,80.75
2024-03-07T05:11:37.881Z,88.10
2024-03-07T05:14:04.593Z,83.10
2024-03-07T05:16:35.235Z,93.68
2024-03-07T05:19:01.995Z,93.25
2024-03-07T05:21:34.090Z,79.78
2024-03-07T05:24:01.767Z,91.95
2024-03-07T05:26:28.414Z,96.50
2024-03-07T05:28:57.939Z,78.80
2024-03-07T05:31:24.692Z,91.35
2024-03-07T05:33:51.451Z,84.03
2024-03-07T05:36:17.944Z,91.95
2024-03-07T05:38:44.587Z,87.72
2024-03-07T05:41:13.404Z,93.80
2024-03-07T05:43:40.891Z,90.80
2024-03-07T05:46:12.031Z,95.78
2024-03-07T05:48:38.552Z,88.57
2024-03-07T05:51:05.452Z,95.57
2024-03-07T05:53:32.074Z,93.93
2024-03-07T05:55:58.592Z,86.43
2024-03-07T05:58:25.084Z,94.75
2024-03-07T06:00:51.932Z,91.53
2024-03-07T06:03:21.517Z,86.97
2024-03-07T06:05:49.274Z,101.78
2024-03-07T06:08:19.429Z,92.00
2024-03-07T06:10:46.455Z,90.65
2024-03-07T06:13:13.664Z,87.72
2024-03-07T06:15:40.873Z,86.60
2024-03-07T06:18:12.195Z,94.13
2024-03-07T06:23:06.395Z,77.95
2024-03-07T06:25:48.674Z,84.38
2024-03-07T06:28:15.370Z,86.75
2024-03-07T06:30:44.055Z,95.20
2024-03-07T06:33:11.280Z,101.30
2024-03-07T06:35:39.556Z,104.68
2024-03-07T06:38:12.085Z,92.70
2024-03-07T06:40:41.316Z,99.80
2024-03-07T06:43:08.415Z,96.82
2024-03-07T06:45:35.056Z,96.38
2024-03-07T06:48:02.076Z,91.10
2024-03-07T06:50:36.545Z,89.22
2024-03-07T06:53:07.699Z,90.70
2024-03-07T06:55:37.538Z,91.47
2024-03-07T06:58:07.389Z,86.95
2024-03-07T07:00:37.083Z,88.63
2024-03-07T07:03:07.357Z,81.18
2024-03-07T07:05:35.012Z,86.95
2024-03-07T07:08:02.223Z,86.60
2024-03-07T07:10:28.948Z,76.68
2024-03-07T07:12:56.300Z,79.35
2024-03-07T07:15:23.245Z,83.78
2024-03-07T07:17:51.054Z,87.28
2024-03-07T07:20:18.440Z,88.18
2024-03-07T07:22:50.673Z,94.93
2024-03-07T07:25:17.805Z,88.10
2024-03-07T07:27:48.506Z,87.30
2024-03-07T07:30:20.107Z,90.17
2024-03-07T07:35:13.764Z,81.47
2024-03-07T07:37:41.329Z,80.03
2024-03-07T07:40:09.845Z,73.93
2024-03-07T07:42:39.705Z,68.53
2024-03-07T07:45:08.229Z,57.47
2024-03-07T07:47:38.631Z,57.85
2024-03-07T07:50:13.764Z,50.65
2024-03-07T07:52:54.520Z,47.95
2024-03-07T07:55:22.445Z,44.00
2024-03-07T07:57:53.585Z,42.30
2024-03-07T08:00:25.107Z,39.13
2024-03-07T08:02:53.739Z,43.97
2024-03-07T08:05:24.045Z,39.05
2024-03-07T08:07:52.006Z,38.60
2024-03-07T08:10:20.037Z,37.42
2024-03-07T08:12:46.632Z,29.00
2024-03-07T08:15:17.037Z,27.83
2024-03-07T08:17:44.965Z,31.80
2024-03-07T08:20:16.107Z,32.25
2024-03-07T08:22:44.040Z,32.42
2024-03-07T08:25:11.805Z,29.58
2024-03-07T08:27:39.552Z,33.63
2024-03-07T08:30:13.993Z,31.80
2024-03-07T08:32:45.434Z,29.60
2024-03-07T08:35:12.735Z,32.75
2024-03-07T08:37:40.653Z,34.53
2024-03-07T08:40:11.964Z,33.83
2024-03-07T08:42:38.890Z,30.42
2024-03-07T08:45:06.279Z,30.25
2024-03-07T08:47:34.079Z,30.30
2024-03-07T08:50:01.626Z,29.48
2024-03-07T08:52:28.832Z,32.38
2024-03-07T08:54:56.016Z,30.52
2024-03-07T08:57:23.145Z,33.58
2024-03-07T08:59:49.848Z,31.45
2024-03-07T09:02:17.274Z,34.42
2024-03-07T09:04:43.926Z,37.53
2024-03-07T09:07:10.681Z,32.72
2024-03-07T09:09:37.204Z,30.50
2024-03-07T09:12:04.192Z,29.08
2024-03-07T09:14:30.828Z,33.78
2024-03-07T09:16:58.161Z,30.98
2024-03-07T09:19:28.317Z,31.58
2024-03-07T09:21:55.438Z,30.55
2024-03-07T09:24:24.862Z,32.17
2024-03-07T09:26:53.063Z,28.95
2024-03-07T09:29:20.792Z,31.95
2024-03-07T09:31:50.169Z,31.65
2024-03-07T09:34:17.457Z,29.10
2024-03-07T09:36:43.983Z,29.13
2024-03-07T09:39:10.582Z,28.73
2024-03-07T09:41:37.689Z,30.92
2024-03-07T09:44:05.532Z,32.17
2024-03-07T09:46:33.169Z,34.35
2024-03-07T09:48:59.771Z,30.38
2024-03-07T09:51:28.536Z,31.80
2024-03-07T09:53:59.158Z,32.00
2024-03-07T09:56:28.126Z,31.50
2024-03-07T09:58:58.219Z,38.42
2024-03-07T10:01:27.243Z,33.42
2024-03-07T10:03:59.477Z,36.53
2024-03-07T10:06:28.130Z,35.78
2024-03-07T10:08:54.659Z,37.30
2024-03-07T10:11:21.988Z,44.25
2024-03-07T10:13:50.227Z,34.00
2024-03-07T10:16:18.554Z,38.90
2024-03-07T10:18:47.045Z,37.95
2024-03-07T10:21:20.620Z,44.55
2024-03-07T10:23:48.487Z,37.95
2024-03-07T10:26:17.125Z,33.38
2024-03-07T10:28:44.000Z,38.05
2024-03-07T10:31:12.532Z,33.83
2024-03-07T10:33:41.204Z,32.85
2024-03-07T10:36:11.332Z,34.28
2024-03-07T10:38:38.633Z,37.70
2024-03-07T10:41:09.251Z,37.75
2024-03-07T10:43:41.606Z,33.08
2024-03-07T10:46:11.408Z,35.10
2024-03-07T10:48:40.631Z,35.58
2024-03-07T10:51:31.237Z,35.00
2024-03-07T10:54:18.954Z,30.98
2024-03-07T10:57:06.472Z,32.55
2024-03-07T10:59:35.350Z,32.60
2024-03-07T11:02:20.892Z,33.40
2024-03-07T11:04:50.617Z,31.02
2024-03-07T11:07:17.401Z,33.28
2024-03-07T11:09:46.910Z,34.05
2024-03-07T11:12:14.176Z,34.15
2024-03-07T11:14:41.577Z,31.90
2024-03-07T11:17:10.548Z,33.40
2024-03-07T11:19:40.651Z,29.38
2024-03-07T11:22:16.704Z,30.40
2024-03-07T11:24:43.995Z,31.55
2024-03-07T11:27:14.860Z,30.10
2024-03-07T11:29:48.893Z,28.42
2024-03-07T11:32:16.363Z,29.95
2024-03-07T11:34:47.238Z,26.85
2024-03-07T11:37:44.456Z,30.07
2024-03-07T11:40:19.498Z,27.40
2024-03-07T11:42:50.277Z,28.63
2024-03-07T11:45:25.948Z,33.93
2024-03-07T11:48:10.865Z,34.90
2024-03-07T11:50:41.706Z,33.35
2024-03-07T11:53:10.112Z,40.55
2024-03-07T11:55:47.215Z,29.58
2024-03-07T11:58:24.136Z,32.17
2024-03-07T12:00:52.643Z,28.52
2024-03-07T12:03:25.788Z,32.67
2024-03-07T12:05:53.479Z,30.13
2024-03-07T12:08:24.033Z,31.92
2024-03-07T12:10:55.043Z,30.98
2024-03-07T12:13:21.828Z,32.33
2024-03-07T12:15:48.448Z,34.67
2024-03-07T12:18:15.360Z,30.05
2024-03-07T12:20:43.780Z,37.78
2024-03-07T12:23:10.419Z,35.70
2024-03-07T12:25:37.413Z,31.02
2024-03-07T12:28:18.163Z,32.53
2024-03-07T12:30:47.935Z,36.80
2024-03-07T12:33:21.377Z,34.25
2024-03-07T12:35:51.143Z,36.10
2024-03-07T12:38:18.513Z,37.45
2024-03-07T12:40:47.150Z,42.05
2024-03-07T12:43:22.980Z,37.17
2024-03-07T12:45:53.578Z,35.95
2024-03-07T12:48:22.487Z,33.10
2024-03-07T12:50:54.559Z,38.20
2024-03-07T12:53:23.096Z,37.25
2024-03-07T12:55:50.006Z,36.08
2024-03-07T12:58:16.652Z,34.83
2024-03-07T13:00:44.715Z,33.78
2024-03-07T13:03:11.562Z,34.60
2024-03-07T13:05:41.660Z,34.30
2024-03-07T13:08:17.745Z,37.92
2024-03-07T13:10:45.023Z,35.00
2024-03-07T13:13:12.492Z,38.63
2024-03-07T13:15:40.309Z,35.22
2024-03-07T13:18:08.281Z,34.88
2024-03-07T13:20:34.892Z,36.30
2024-03-07T13:23:02.149Z,38.20
2024-03-07T13:25:33.636Z,35.88
2024-03-07T13:28:08.625Z,31.20
2024-03-07T13:30:37.167Z,41.10
2024-03-07T13:33:04.705Z,34.28
2024-03-07T13:35:31.396Z,34.03
2024-03-07T13:37:58.064Z,35.35
2024-03-07T13:40:26.291Z,35.00
2024-03-07T13:42:57.556Z,31.70
2024-03-07T13:45:28.137Z,34.33
2024-03-07T13:47:55.870Z,35.90
2024-03-07T13:50:40.669Z,32.83
2024-03-07T13:53:30.155Z,36.50
2024-03-07T13:56:30.029Z,37.25
2024-03-07T13:59:05.545Z,34.83
2024-03-07T14:02:13.539Z,32.53
2024-03-07T14:05:14.498Z,33.72
2024-03-07T14:08:29.662Z,32.73
2024-03-07T14:11:32.950Z,31.60
2024-03-07T14:14:23.116Z,31.15
2024-03-07T14:17:40.525Z,29.98
2024-03-07T14:20:47.059Z,31.83
2024-03-07T14:23:19.435Z,31.52
2024-03-07T14:26:28.548Z,30.33
2024-03-07T14:29:20.352Z,29.65
2024-03-07T14:31:50.469Z,32.35
2024-03-07T14:34:28.952Z,29.52
2024-03-07T14:37:03.571Z,29.40
2024-03-07T14:39:30.424Z,32.70
2024-03-07T14:42:00.067Z,29.02
2024-03-07T14:44:27.888Z,33.42
2024-03-07T14:46:59.402Z,33.95
2024-03-07T14:49:26.065Z,30.33
2024-03-07T14:52:00.044Z,32.08
2024-03-07T14:54:28.916Z,32.60
2024-03-07T14:56:55.953Z,35.67
2024-03-07T14:59:22.982Z,35.90
2024-03-07T15:01:50.183Z,30.17
2024-03-07T15:04:16.825Z,30.67
2024-03-07T15:06:45.172Z,32.25
2024-03-07T15:09:11.741Z,28.75
2024-03-07T15:11:41.528Z,31.90
2024-03-07T15:14:11.741Z,32.00
2024-03-07T15:16:39.981Z,38.28
2024-03-07T15:19:13.823Z,33.42
2024-03-07T15:21:40.644Z,32.65
2024-03-07T15:24:07.745Z,35.25
2024-03-07T15:26:35.891Z,35.05
2024-03-07T15:29:02.617Z,34.65
2024-03-07T15:31:29.819Z,32.97
2024-03-07T15:33:56.955Z,36.15
2024-03-07T15:36:23.986Z,35.22
2024-03-07T15:38:50.963Z,35.10
2024-03-07T15:41:17.838Z,35.20
2024-03-07T15:43:44.479Z,38.25
2024-03-07T15:46:17.056Z,35.70
2024-03-07T15:48:46.765Z,39.83
2024-03-07T15:51:13.407Z,38.53
2024-03-07T15:53:41.820Z,41.42
2024-03-07T15:56:08.713Z,35.47
2024-03-07T15:58:35.475Z,34.95
2024-03-07T16:01:03.104Z,34.40
2024-03-07T16:03:29.748Z,36.00
2024-03-07T16:05:57.852Z,35.08
2024-03-07T16:08:24.841Z,35.15
2024-03-07T16:10:52.326Z,32.70
2024-03-07T16:13:18.959Z,32.55
2024-03-07T16:15:46.576Z,33.40
2024-03-07T16:18:15.516Z,34.25
2024-03-07T16:20:42.775Z,36.10
2024-03-07T16:23:09.492Z,29.52
2024-03-07T16:25:40.351Z,33.78
2024-03-07T16:28:08.657Z,33.38
2024-03-07T16:30:36.842Z,33.28
2024-03-07T16:33:05.421Z,33.80
2024-03-07T16:35:32.589Z,31.70
2024-03-07T16:37:59.943Z,36.85
2024-03-07T16:40:28.201Z,33.05
2024-03-07T16:42:57.645Z,30.45
2024-03-07T16:45:26.494Z,29.88
2024-03-07T16:47:58.214Z,32.13
2024-03-07T16:50:33.153Z,29.58
2024-03-07T16:53:08.606Z,28.88
2024-03-07T16:55:40.325Z,29.35
2024-03-07T16:58:13.701Z,30.15
2024-03-07T17:00:43.333Z,31.23
2024-03-07T17:03:11.618Z,30.65
2024-03-07T17:05:41.130Z,32.33
2024-03-07T17:08:09.046Z,31.15
2024-03-07T17:10:40.665Z,34.60
2024-03-07T17:13:10.862Z,32.10
2024-03-07T17:15:43.088Z,29.83
2024-03-07T17:18:15.901Z,31.30
2024-03-07T17:20:45.344Z,25.70
2024-03-07T17:23:13.607Z,27.48
2024-03-07T17:25:40.291Z,27.25
2024-03-07T17:28:06.816Z,31.17
2024-03-07T17:30:33.980Z,24.90
2024-03-07T17:33:01.706Z,26.90
2024-03-07T17:35:31.000Z,24.83
2024-03-07T17:37:58.514Z,27.00
2024-03-07T17:40:28.431Z,23.30
2024-03-07T17:42:55.663Z,28.52
2024-03-07T17:45:26.653Z,30.15
2024-03-07T17:47:58.935Z,25.92
2024-03-07T17:50:27.557Z,28.38
2024-03-07T17:53:08.718Z,29.92
2024-03-07T17:55:36.035Z,27.20
2024-03-07T17:58:05.033Z,31.88
2024-03-07T18:00:33.145Z,28.73
2024-03-07T18:03:05.772Z,28.48
2024-03-07T18:05:37.668Z,31.65
2024-03-07T18:10:41.131Z,24.38
2024-03-07T18:13:12.673Z,26.17
2024-03-07T18:15:40.638Z,32.97
2024-03-07T18:18:10.949Z,28.48
2024-03-07T18:20:45.907Z,27.70
2024-03-07T18:23:13.895Z,28.10
2024-03-07T18:25:41.969Z,26.58
2024-03-07T18:28:08.791Z,28.35
2024-03-07T18:30:35.495Z,29.52
2024-03-07T18:33:06.967Z,29.70
2024-03-07T18:38:07.751Z,27.98
2024-03-07T18:40:34.919Z,27.17
2024-03-07T18:43:07.777Z,28.17
2024-03-07T18:45:36.789Z,22.95
2024-03-07T18:48:08.201Z,26.70
2024-03-07T18:50:39.460Z,26.13
2024-03-07T18:53:06.193Z,27.10
2024-03-07T18:55:32.737Z,23.73
2024-03-07T18:58:04.110Z,26.42
2024-03-07T19:00:32.451Z,27.15
2024-03-07T19:03:04.386Z,23.55
2024-03-07T19:05:33.133Z,26.67
2024-03-07T19:08:01.952Z,26.92
2024-03-07T19:10:31.999Z,28.48
2024-03-07T19:12:59.468Z,25.50
2024-03-07T19:15:26.700Z,26.23
2024-03-07T19:17:53.871Z,26.02
2024-03-07T19:20:21.482Z,23.58
2024-03-07T19:22:49.455Z,24.15
2024-03-07T19:25:18.575Z,22.95
2024-03-07T19:27:50.355Z,23.65
2024-03-07T19:30:18.035Z,23.20
2024-03-07T19:32:48.134Z,21.75
2024-03-07T19:35:17.801Z,24.65
2024-03-07T19:37:46.158Z,24.48
2024-03-07T19:40:22.459Z,23.65
2024-03-07T19:42:52.481Z,27.65
2024-03-07T19:45:20.175Z,23.67
2024-03-07T19:47:47.598Z,23.20
2024-03-07T19:50:17.702Z,25.40
2024-03-07T19:52:47.207Z,25.98
2024-03-07T19:55:14.641Z,28.08
2024-03-07T19:57:43.138Z,24.90
2024-03-07T20:00:10.158Z,28.60
2024-03-07T20:02:39.970Z,28.25
2024-03-07T20:05:08.369Z,24.15
2024-03-07T20:07:35.667Z,26.75
2024-03-07T20:10:07.954Z,25.33
2024-03-07T20:12:36.751Z,27.00
2024-03-07T20:15:04.917Z,27.10
2024-03-07T20:17:32.287Z,27.55
2024-03-07T20:19:59.135Z,27.27
2024-03-07T20:22:26.230Z,29.13
2024-03-07T20:24:53.102Z,25.15
2024-03-07T20:27:19.968Z,26.45
2024-03-07T20:29:46.496Z,26.85
2024-03-07T20:32:13.161Z,26.48
2024-03-07T20:34:42.298Z,24.77
2024-03-07T20:37:11.924Z,27.13
2024-03-07T20:39:40.764Z,24.15
2024-03-07T20:42:11.230Z,26.05
2024-03-07T20:44:38.990Z,27.13
2024-03-07T20:47:07.782Z,27.00
2024-03-07T20:49:36.893Z,30.60
2024-03-07T20:52:04.454Z,28.60
2024-03-07T20:54:31.130Z,28.42
2024-03-07T20:56:58.793Z,27.25
2024-03-07T20:59:25.546Z,25.50
2024-03-07T21:01:53.278Z,25.45
2024-03-07T21:04:21.222Z,26.17
2024-03-07T21:06:48.776Z,29.05
2024-03-07T21:09:17.105Z,28.65
2024-03-07T21:11:45.208Z,28.33
2024-03-07T21:14:12.628Z,29.13
2024-03-07T21:16:44.809Z,27.50
2024-03-07T21:19:11.503Z,26.27
2024-03-07T21:21:38.587Z,26.00
2024-03-07T21:24:05.812Z,26.40
2024-03-07T21:26:32.685Z,29.83
2024-03-07T21:28:59.400Z,26.73
2024-03-07T21:31:27.603Z,25.13
2024-03-07T21:33:54.092Z,26.52
2024-03-07T21:36:20.613Z,27.08
2024-03-07T21:38:51.173Z,26.98
2024-03-07T21:41:18.097Z,28.42
2024-03-07T21:43:44.561Z,25.15
2024-03-07T21:46:14.654Z,28.63
2024-03-07T21:48:42.563Z,22.95
2024-03-07T21:51:11.232Z,24.77
2024-03-07T21:53:42.335Z,27.92
2024-03-07T21:56:09.108Z,25.45
2024-03-07T21:58:35.564Z,26.58
2024-03-07T22:01:02.202Z,28.75
2024-03-07T22:03:28.767Z,25.00
2024-03-07T22:05:55.395Z,25.17
2024-03-07T22:08:24.709Z,26.00
2024-03-07T22:10:51.428Z,28.08
2024-03-07T22:13:21.075Z,28.42
2024-03-07T22:15:49.071Z,30.52
2024-03-07T22:18:15.707Z,31.60
2024-03-07T22:20:42.347Z,25.63
2024-03-07T22:23:08.850Z,27.23
2024-03-07T22:25:35.377Z,30.58
2024-03-07T22:28:04.865Z,26.40
2024-03-07T22:30:31.618Z,25.67
2024-03-07T22:32:58.357Z,25.67
2024-03-07T22:35:25.425Z,28.13
2024-03-07T22:37:53.325Z,27.27
2024-03-07T22:40:28.466Z,31.33
2024-03-07T22:42:55.356Z,32.03
2024-03-07T22:45:22.075Z,29.55
2024-03-07T22:47:52.181Z,28.73
2024-03-07T22:50:27.757Z,29.73
2024-03-07T22:52:58.510Z,33.50
2024-03-07T22:55:25.268Z,30.70
2024-03-07T22:57:51.981Z,27.63
2024-03-07T23:00:29.533Z,27.38
2024-03-07T23:02:58.372Z,33.05
2024-03-07T23:05:25.883Z,28.23
2024-03-07T23:07:52.436Z,31.30
2024-03-07T23:10:20.548Z,32.65
2024-03-07T23:12:50.499Z,30.33
2024-03-07T23:15:17.163Z,39.05
2024-03-07T23:17:47.013Z,26.83
2024-03-07T23:20:32.304Z,25.63
2024-03-07T23:23:00.254Z,32.97
2024-03-07T23:25:27.898Z,42.58
2024-03-07T23:27:55.512Z,40.53
2024-03-07T23:30:24.342Z,39.35
2024-03-07T23:32:52.642Z,44.17
2024-03-07T23:35:19.687Z,43.55
2024-03-07T23:37:47.778Z,35.60
2024-03-07T23:40:14.911Z,30.35
2024-03-07T23:42:43.642Z,32.42
2024-03-07T23:45:13.333Z,31.27
2024-03-07T23:47:42.166Z,31.10
2024-03-07T23:50:11.845Z,35.13
2024-03-07T23:52:40.750Z,32.85
2024-03-07T23:55:07.648Z,30.95
2024-03-07T23:57:34.592Z,30.08
